createdAt,value
2023-02-15T00:00:40.222Z,0.70
2023-02-15T00:03:10.045Z,0.70
2023-02-15T00:05:41.170Z,0.70
2023-02-15T00:08:12.012Z,0.70
2023-02-15T00:10:41.825Z,0.60
2023-02-15T00:13:11.624Z,0.70
2023-02-15T00:15:41.341Z,0.70
2023-02-15T00:18:11.179Z,0.70
2023-02-15T00:20:42.025Z,0.70
2023-02-15T00:23:11.865Z,0.70
2023-02-15T00:25:41.671Z,0.70
2023-02-15T00:28:11.434Z,0.70
2023-02-15T00:30:41.366Z,0.70
2023-02-15T00:33:11.212Z,0.70
2023-02-15T00:35:42.372Z,0.70
2023-02-15T00:38:13.572Z,0.80
2023-02-15T00:40:43.067Z,0.70
2023-02-15T00:43:12.918Z,0.70
2023-02-15T00:45:42.712Z,0.70
2023-02-15T00:48:12.524Z,0.70
2023-02-15T00:50:43.500Z,0.70
2023-02-15T00:53:13.329Z,0.80
2023-02-15T00:55:43.151Z,0.70
2023-02-15T00:58:13.320Z,0.60
2023-02-15T01:00:44.743Z,0.60
2023-02-15T01:03:15.700Z,0.60
2023-02-15T01:05:46.584Z,0.60
2023-02-15T01:08:16.585Z,0.60
2023-02-15T01:10:48.077Z,0.60
2023-02-15T01:13:18.776Z,0.60
2023-02-15T01:15:53.728Z,0.60
2023-02-15T01:18:23.778Z,0.70
2023-02-15T01:20:54.712Z,0.70
2023-02-15T01:23:24.506Z,0.70
2023-02-15T01:25:54.332Z,0.60
2023-02-15T01:28:24.166Z,0.60
2023-02-15T01:30:54.022Z,0.60
2023-02-15T01:33:23.593Z,0.70
2023-02-15T01:36:00.924Z,0.70
2023-02-15T01:38:30.564Z,0.70
2023-02-15T01:41:20.796Z,0.70
2023-02-15T01:43:52.640Z,0.70
2023-02-15T01:46:24.148Z,0.80
2023-02-15T01:49:03.054Z,0.80
2023-02-15T01:51:36.685Z,0.70
2023-02-15T01:54:09.691Z,0.70
2023-02-15T01:56:41.602Z,0.60
2023-02-15T01:59:14.987Z,0.60
2023-02-15T02:01:45.200Z,0.60
2023-02-15T02:04:20.152Z,0.70
2023-02-15T02:06:52.647Z,0.60
2023-02-15T02:09:22.509Z,0.70
2023-02-15T02:11:55.009Z,0.70
2023-02-15T02:14:26.587Z,0.70
2023-02-15T02:17:05.988Z,0.80
2023-02-15T02:20:16.601Z,0.60
2023-02-15T02:23:29.145Z,0.70
2023-02-15T02:26:53.965Z,0.90
2023-02-15T02:29:53.018Z,0.80
2023-02-15T02:32:51.667Z,0.90
2023-02-15T02:35:25.136Z,0.90
2023-02-15T02:38:01.984Z,0.70
2023-02-15T02:40:38.069Z,0.70
2023-02-15T02:43:17.436Z,0.70
2023-02-15T02:45:51.503Z,0.50
2023-02-15T02:48:26.238Z,0.50
2023-02-15T02:50:55.788Z,0.60
2023-02-15T02:53:25.799Z,0.60
2023-02-15T02:56:01.380Z,0.60
2023-02-15T02:58:35.862Z,0.70
2023-02-15T03:01:11.262Z,0.70
2023-02-15T03:03:46.354Z,0.70
2023-02-15T03:06:19.780Z,0.80
2023-02-15T03:08:53.281Z,0.70
2023-02-15T03:11:23.009Z,0.60
2023-02-15T03:13:53.467Z,0.60
2023-02-15T03:16:30.306Z,0.60
2023-02-15T03:19:04.566Z,0.50
2023-02-15T03:21:42.256Z,0.40
2023-02-15T03:24:16.443Z,0.60
2023-02-15T03:26:48.673Z,0.70
2023-02-15T03:29:20.722Z,0.60
2023-02-15T03:31:55.840Z,0.60
2023-02-15T03:34:27.471Z,0.70
2023-02-15T03:37:02.170Z,0.50
2023-02-15T03:39:37.792Z,0.40
2023-02-15T03:42:13.739Z,0.40
2023-02-15T03:44:50.156Z,0.40
2023-02-15T03:47:23.104Z,0.40
2023-02-15T03:49:59.383Z,0.40
2023-02-15T03:52:32.214Z,0.40
2023-02-15T03:55:02.144Z,0.40
2023-02-15T03:57:50.562Z,0.30
2023-02-15T04:00:41.140Z,0.40
2023-02-15T04:03:18.115Z,0.40
2023-02-15T04:05:49.511Z,0.50
2023-02-15T04:08:19.291Z,0.40
2023-02-15T04:10:54.253Z,0.40
2023-02-15T04:13:25.621Z,0.30
2023-02-15T04:16:07.926Z,0.30
2023-02-15T04:18:58.017Z,0.30
2023-02-15T04:21:48.296Z,0.30
2023-02-15T04:24:36.488Z,0.30
2023-02-15T04:27:07.006Z,0.30
2023-02-15T04:29:36.548Z,0.30
2023-02-15T04:32:07.529Z,0.20
2023-02-15T04:34:37.326Z,0.30
2023-02-15T04:37:08.427Z,0.30
2023-02-15T04:39:38.230Z,0.40
2023-02-15T04:42:08.017Z,0.30
2023-02-15T04:44:37.840Z,0.40
2023-02-15T04:47:07.702Z,0.30
2023-02-15T04:49:37.440Z,0.30
2023-02-15T04:52:09.255Z,0.30
2023-02-15T04:54:39.554Z,0.40
2023-02-15T04:57:09.242Z,0.30
2023-02-15T04:59:39.114Z,0.30
2023-02-15T05:02:09.754Z,0.30
2023-02-15T05:04:39.562Z,0.40
2023-02-15T05:07:10.659Z,0.40
2023-02-15T05:09:40.486Z,0.40
2023-02-15T05:12:10.685Z,0.40
2023-02-15T05:14:40.503Z,0.30
2023-02-15T05:17:10.175Z,0.30
2023-02-15T05:19:43.350Z,0.30
2023-02-15T05:22:14.522Z,0.30
2023-02-15T05:25:02.159Z,0.20
2023-02-15T05:27:51.236Z,0.20
2023-02-15T05:30:21.063Z,0.20
2023-02-15T05:32:50.795Z,0.20
2023-02-15T05:35:20.734Z,0.20
2023-02-15T05:37:51.823Z,0.20
2023-02-15T05:40:21.515Z,0.20
2023-02-15T05:42:51.247Z,0.20
2023-02-15T05:45:21.038Z,0.20
2023-02-15T05:47:51.057Z,0.20
2023-02-15T05:50:21.716Z,0.10
2023-02-15T05:52:52.755Z,0.20
2023-02-15T05:55:22.335Z,0.20
2023-02-15T05:57:52.607Z,0.20
2023-02-15T06:00:22.490Z,0.20
2023-02-15T06:02:52.270Z,0.20
2023-02-15T06:05:21.874Z,0.20
2023-02-15T06:07:52.982Z,0.20
2023-02-15T06:10:24.153Z,0.30
2023-02-15T06:12:54.019Z,0.30
2023-02-15T06:15:23.749Z,0.30
2023-02-15T06:17:53.537Z,0.40
2023-02-15T06:20:23.316Z,0.50
2023-02-15T06:22:54.397Z,0.60
2023-02-15T06:25:25.528Z,0.70
2023-02-15T06:27:54.989Z,0.70
2023-02-15T06:30:24.882Z,0.70
2023-02-15T06:32:54.431Z,0.70
2023-02-15T06:35:24.393Z,0.70
2023-02-15T06:37:55.264Z,0.60
2023-02-15T06:40:25.003Z,0.60
2023-02-15T06:42:54.764Z,0.50
2023-02-15T06:45:24.508Z,0.50
2023-02-15T06:47:54.298Z,0.40
2023-02-15T06:50:24.213Z,0.40
2023-02-15T06:52:58.134Z,0.30
2023-02-15T06:55:27.712Z,0.30
2023-02-15T06:57:57.635Z,0.30
2023-02-15T07:00:28.362Z,0.20
2023-02-15T07:02:58.665Z,0.20
2023-02-15T07:05:32.119Z,0.20
2023-02-15T07:08:03.396Z,0.20
2023-02-15T07:10:33.332Z,0.20
2023-02-15T07:13:04.053Z,0.10
2023-02-15T07:15:33.640Z,0.20
2023-02-15T07:23:15.943Z,0.20
2023-02-15T07:25:45.928Z,0.20
2023-02-15T07:28:16.942Z,0.20
2023-02-15T07:34:27.300Z,0.20
2023-02-15T07:36:57.057Z,0.30
2023-02-15T07:39:28.428Z,0.30
2023-02-15T07:41:58.049Z,0.30
2023-02-15T07:44:27.875Z,0.40
2023-02-15T07:46:57.657Z,0.50
2023-02-15T07:49:27.497Z,0.50
2023-02-15T07:51:57.498Z,0.40
2023-02-15T07:54:28.742Z,0.40
2023-02-15T07:56:58.540Z,0.50
2023-02-15T07:59:28.622Z,0.50
2023-02-15T08:01:58.657Z,0.50
2023-02-15T08:04:29.361Z,0.50
2023-02-15T08:06:59.139Z,0.50
2023-02-15T08:09:30.307Z,0.60
2023-02-15T08:11:59.964Z,0.60
2023-02-15T08:14:31.513Z,0.60
2023-02-15T08:17:03.695Z,0.60
2023-02-15T08:19:35.481Z,0.80
2023-02-15T08:22:07.249Z,0.80
2023-02-15T08:24:40.291Z,0.70
2023-02-15T08:27:12.600Z,0.70
2023-02-15T08:29:44.029Z,0.70
2023-02-15T08:32:14.848Z,0.80
2023-02-15T08:34:45.380Z,0.90
2023-02-15T08:37:15.413Z,0.90
2023-02-15T08:39:46.947Z,1.00
2023-02-15T08:42:16.777Z,0.90
2023-02-15T08:44:46.804Z,0.90
2023-02-15T08:47:17.189Z,0.90
2023-02-15T08:49:47.209Z,0.80
2023-02-15T08:52:17.143Z,0.90
2023-02-15T08:54:48.412Z,0.80
2023-02-15T08:57:18.285Z,0.80
2023-02-15T08:59:48.484Z,1.00
2023-02-15T09:02:18.230Z,1.10
2023-02-15T09:04:48.333Z,1.30
2023-02-15T09:07:19.732Z,1.30
2023-02-15T09:09:51.378Z,1.40
2023-02-15T09:12:21.384Z,1.40
2023-02-15T09:14:51.305Z,1.20
2023-02-15T09:17:21.238Z,1.10
2023-02-15T09:19:51.442Z,1.10
2023-02-15T09:22:21.116Z,1.40
2023-02-15T09:24:52.357Z,1.40
2023-02-15T09:27:22.014Z,1.30
2023-02-15T09:29:52.663Z,1.40
2023-02-15T09:32:23.123Z,1.40
2023-02-15T09:34:52.868Z,1.40
2023-02-15T09:37:22.945Z,1.40
2023-02-15T09:39:55.025Z,1.40
2023-02-15T09:42:45.106Z,1.50
2023-02-15T09:45:27.103Z,1.50
2023-02-15T09:48:13.639Z,1.60
2023-02-15T09:50:52.943Z,1.70
2023-02-15T09:53:42.161Z,1.60
2023-02-15T09:56:21.713Z,1.70
2023-02-15T09:58:58.900Z,1.70
2023-02-15T10:01:37.405Z,1.70
2023-02-15T10:04:24.294Z,1.80
2023-02-15T10:07:03.530Z,2.00
2023-02-15T10:09:41.604Z,2.10
2023-02-15T10:12:32.406Z,2.00
2023-02-15T10:15:20.289Z,2.10
2023-02-15T10:18:02.364Z,2.20
2023-02-15T10:20:40.330Z,2.40
2023-02-15T10:23:27.861Z,2.40
2023-02-15T10:26:12.271Z,2.70
2023-02-15T10:28:48.799Z,2.80
2023-02-15T10:31:25.382Z,2.60
2023-02-15T10:34:11.283Z,2.60
2023-02-15T10:37:08.310Z,2.90
2023-02-15T10:39:45.802Z,3.00
2023-02-15T10:42:22.078Z,3.30
2023-02-15T10:45:06.153Z,3.50
2023-02-15T10:47:57.336Z,3.30
2023-02-15T10:50:34.640Z,2.90
2023-02-15T10:53:19.356Z,3.10
2023-02-15T10:55:55.578Z,3.40
2023-02-15T10:58:37.436Z,3.30
2023-02-15T11:01:15.759Z,3.10
2023-02-15T11:04:01.215Z,3.20
2023-02-15T11:06:32.203Z,3.40
2023-02-15T11:09:07.086Z,3.50
2023-02-15T11:11:41.483Z,3.50
2023-02-15T11:14:17.034Z,3.60
2023-02-15T11:16:52.725Z,3.60
2023-02-15T11:19:26.018Z,3.60
2023-02-15T11:22:01.065Z,3.50
2023-02-15T11:24:35.657Z,3.50
2023-02-15T11:27:18.430Z,3.40
2023-02-15T11:29:55.184Z,3.20
2023-02-15T11:32:31.112Z,3.20
2023-02-15T11:35:04.235Z,3.20
2023-02-15T11:37:37.975Z,3.10
2023-02-15T11:40:23.060Z,3.20
2023-02-15T11:42:55.668Z,3.40
2023-02-15T11:45:28.441Z,3.60
2023-02-15T11:48:01.364Z,3.80
2023-02-15T11:50:33.519Z,4.00
2023-02-15T11:53:07.526Z,3.90
2023-02-15T11:55:37.517Z,4.00
2023-02-15T11:58:11.882Z,4.00
2023-02-15T12:00:44.278Z,3.90
2023-02-15T12:03:24.396Z,4.00
2023-02-15T12:06:00.089Z,4.00
2023-02-15T12:08:36.805Z,4.30
2023-02-15T12:11:14.070Z,4.40
2023-02-15T12:13:59.108Z,4.40
2023-02-15T12:16:31.027Z,4.60
2023-02-15T12:19:04.369Z,4.60
2023-02-15T12:21:40.630Z,4.10
2023-02-15T12:24:20.862Z,4.00
2023-02-15T12:26:59.202Z,3.90
2023-02-15T12:29:32.391Z,4.30
2023-02-15T12:32:03.029Z,4.40
2023-02-15T12:34:40.538Z,4.80
2023-02-15T12:37:17.908Z,5.00
2023-02-15T12:40:12.450Z,5.20
2023-02-15T12:42:46.624Z,5.20
2023-02-15T12:45:29.508Z,5.40
2023-02-15T12:48:19.895Z,5.40
2023-02-15T12:50:55.770Z,5.50
2023-02-15T12:53:33.155Z,5.50
2023-02-15T12:56:04.754Z,5.40
2023-02-15T12:58:35.711Z,5.20
2023-02-15T13:01:13.663Z,5.40
2023-02-15T13:03:58.141Z,5.50
2023-02-15T13:06:30.890Z,5.70
2023-02-15T13:09:08.319Z,5.80
2023-02-15T13:11:39.201Z,5.90
2023-02-15T13:14:19.972Z,5.70
2023-02-15T13:16:53.135Z,5.80
2023-02-15T13:19:28.170Z,6.00
2023-02-15T13:22:00.075Z,6.00
2023-02-15T13:24:34.986Z,6.00
2023-02-15T13:27:15.037Z,6.00
2023-02-15T13:29:46.522Z,6.00
2023-02-15T13:32:25.036Z,6.10
2023-02-15T13:34:57.703Z,6.10
2023-02-15T13:37:43.703Z,6.20
2023-02-15T13:40:20.491Z,6.20
2023-02-15T13:42:54.694Z,6.20
2023-02-15T13:45:34.621Z,6.10
2023-02-15T13:48:11.133Z,6.10
2023-02-15T13:50:56.299Z,6.10
2023-02-15T13:54:15.329Z,6.00
2023-02-15T13:56:55.499Z,5.90
2023-02-15T13:59:42.999Z,5.90
2023-02-15T14:02:36.818Z,5.90
2023-02-15T14:05:30.200Z,5.80
2023-02-15T14:08:11.051Z,5.80
2023-02-15T14:10:48.892Z,5.80
2023-02-15T14:14:09.324Z,5.80
2023-02-15T14:17:04.275Z,5.80
2023-02-15T14:19:42.299Z,5.80
2023-02-15T14:22:20.711Z,5.80
2023-02-15T14:25:02.101Z,5.80
2023-02-15T14:27:42.102Z,5.90
2023-02-15T14:30:22.187Z,5.90
2023-02-15T14:32:54.243Z,5.90
2023-02-15T14:35:28.706Z,5.90
2023-02-15T14:38:04.696Z,5.90
2023-02-15T14:41:02.585Z,5.80
2023-02-15T14:43:48.122Z,5.90
2023-02-15T14:46:25.332Z,5.90
2023-02-15T14:48:56.908Z,6.00
2023-02-15T14:51:57.896Z,6.00
2023-02-15T14:55:00.822Z,6.00
2023-02-15T14:57:35.929Z,5.90
2023-02-15T15:00:33.907Z,5.90
2023-02-15T15:03:12.306Z,5.70
2023-02-15T15:05:51.738Z,5.60
2023-02-15T15:08:33.866Z,5.50
2023-02-15T15:11:44.026Z,5.40
2023-02-15T15:14:38.629Z,5.30
2023-02-15T15:17:11.549Z,5.20
2023-02-15T15:20:08.421Z,5.10
2023-02-15T15:22:38.874Z,5.00
2023-02-15T15:25:12.504Z,5.00
2023-02-15T15:27:51.543Z,4.90
2023-02-15T15:30:52.127Z,4.90
2023-02-15T15:33:59.270Z,4.80
2023-02-15T15:37:13.160Z,4.80
2023-02-15T15:40:14.033Z,4.60
2023-02-15T15:42:51.974Z,4.60
2023-02-15T15:45:58.652Z,4.50
2023-02-15T15:48:35.681Z,4.50
2023-02-15T15:51:13.320Z,4.50
2023-02-15T15:53:49.472Z,4.40
2023-02-15T15:56:23.478Z,4.40
2023-02-15T15:58:55.383Z,4.30
2023-02-15T16:01:28.565Z,4.30
2023-02-15T16:04:00.246Z,4.20
2023-02-15T16:06:35.553Z,4.20
2023-02-15T16:09:21.368Z,4.10
2023-02-15T16:11:54.748Z,4.00
2023-02-15T16:14:31.159Z,3.90
2023-02-15T16:17:03.574Z,3.80
2023-02-15T16:19:37.618Z,3.80
2023-02-15T16:22:11.391Z,3.70
2023-02-15T16:24:52.823Z,3.60
2023-02-15T16:27:37.441Z,3.50
2023-02-15T16:30:30.535Z,3.40
2023-02-15T16:33:07.451Z,3.20
2023-02-15T16:35:38.643Z,3.00
2023-02-15T16:38:11.053Z,2.90
2023-02-15T16:40:48.257Z,2.90
2023-02-15T16:43:21.782Z,2.80
2023-02-15T16:45:52.121Z,2.80
2023-02-15T16:48:26.472Z,2.70
2023-02-15T16:50:59.897Z,2.50
2023-02-15T16:53:31.137Z,2.40
2023-02-15T16:56:02.904Z,2.30
2023-02-15T16:58:38.660Z,2.30
2023-02-15T17:01:12.217Z,2.20
2023-02-15T17:03:44.232Z,2.10
2023-02-15T17:06:26.661Z,1.90
2023-02-15T17:09:04.703Z,1.80
2023-02-15T17:11:41.921Z,1.80
2023-02-15T17:14:21.900Z,1.90
2023-02-15T17:16:52.762Z,1.80
2023-02-15T17:19:27.146Z,1.80
2023-02-15T17:21:59.436Z,1.80
2023-02-15T17:24:36.977Z,1.70
2023-02-15T17:27:10.679Z,1.60
2023-02-15T17:29:46.973Z,1.60
2023-02-15T17:32:20.710Z,1.60
2023-02-15T17:35:00.799Z,1.50
2023-02-15T17:37:32.464Z,1.40
2023-02-15T17:40:10.051Z,1.40
2023-02-15T17:42:39.903Z,1.40
2023-02-15T17:45:14.079Z,1.40
2023-02-15T17:47:46.898Z,1.30
2023-02-15T17:50:22.113Z,1.30
2023-02-15T17:52:52.550Z,1.20
2023-02-15T17:55:43.527Z,1.20
2023-02-15T17:58:15.234Z,1.00
2023-02-15T18:01:06.320Z,0.90
2023-02-15T18:04:00.721Z,0.80
2023-02-15T18:06:48.284Z,0.50
2023-02-15T18:09:37.282Z,0.40
2023-02-15T18:12:19.270Z,0.30
2023-02-15T18:14:49.008Z,0.40
2023-02-15T18:17:23.372Z,0.40
2023-02-15T18:19:54.125Z,0.30
2023-02-15T18:22:24.028Z,0.30
2023-02-15T18:24:53.992Z,0.30
2023-02-15T18:27:23.701Z,0.30
2023-02-15T18:29:53.535Z,0.30
2023-02-15T18:32:36.097Z,0.30
2023-02-15T18:35:06.785Z,0.30
2023-02-15T18:37:37.059Z,0.20
2023-02-15T18:40:08.256Z,0.30
2023-02-15T18:42:39.485Z,0.30
2023-02-15T18:45:16.377Z,0.30
2023-02-15T18:47:49.416Z,0.30
2023-02-15T18:50:20.566Z,0.40
2023-02-15T18:52:52.055Z,0.40
2023-02-15T18:55:24.107Z,0.40
2023-02-15T18:57:55.703Z,0.40
2023-02-15T19:00:28.507Z,0.30
2023-02-15T19:03:02.058Z,0.30
2023-02-15T19:05:33.596Z,0.20
2023-02-15T19:08:04.440Z,0.30
2023-02-15T19:10:34.911Z,0.30
2023-02-15T19:13:04.811Z,0.30
2023-02-15T19:15:34.989Z,0.30
2023-02-15T19:18:06.332Z,0.40
2023-02-15T19:20:38.170Z,0.40
2023-02-15T19:23:09.210Z,0.30
2023-02-15T19:25:40.223Z,0.30
2023-02-15T19:28:16.130Z,0.30
2023-02-15T19:30:46.432Z,0.20
2023-02-15T19:33:21.273Z,0.20
2023-02-15T19:35:55.490Z,0.10
2023-02-15T19:38:29.191Z,0.10
2023-02-15T19:41:04.198Z,0.10
2023-02-15T19:43:34.808Z,0.10
2023-02-15T19:46:05.254Z,0.10
2023-02-15T19:48:36.676Z,0.20
2023-02-15T19:51:07.279Z,0.10
2023-02-15T19:53:36.885Z,0.10
2023-02-15T19:56:09.404Z,0.10
2023-02-15T19:58:39.470Z,0.10
2023-02-15T20:01:13.192Z,0.10
2023-02-15T20:03:44.187Z,0.10
2023-02-15T20:06:16.930Z,-0.10
2023-02-15T20:08:48.090Z,-0.20
2023-02-15T20:11:17.881Z,-0.20
2023-02-15T20:13:47.685Z,-0.40
2023-02-15T20:16:17.541Z,-0.70
2023-02-15T20:18:48.585Z,-0.60
2023-02-15T20:21:19.646Z,-0.70
2023-02-15T20:23:49.591Z,-0.60
2023-02-15T20:26:21.160Z,-0.60
2023-02-15T20:28:50.986Z,-0.70
2023-02-15T20:31:22.178Z,-0.60
2023-02-15T20:33:53.926Z,-0.70
2023-02-15T20:36:25.520Z,-0.70
2023-02-15T20:38:57.272Z,-0.70
2023-02-15T20:41:40.113Z,-0.70
2023-02-15T20:44:19.429Z,-0.70
2023-02-15T20:46:49.569Z,-0.80
2023-02-15T20:49:21.272Z,-0.90
2023-02-15T20:51:51.682Z,-0.90
2023-02-15T20:54:23.628Z,-1.00
2023-02-15T20:56:54.562Z,-1.00
2023-02-15T20:59:27.934Z,-1.00
2023-02-15T21:01:59.731Z,-1.00
2023-02-15T21:04:33.202Z,-1.00
2023-02-15T21:07:03.356Z,-1.00
2023-02-15T21:09:33.044Z,-1.00
2023-02-15T21:12:03.366Z,-1.00
2023-02-15T21:14:33.055Z,-1.00
2023-02-15T21:17:04.478Z,-1.00
2023-02-15T21:19:37.160Z,-0.90
2023-02-15T21:22:07.954Z,-0.90
2023-02-15T21:24:45.698Z,-0.90
2023-02-15T21:27:16.506Z,-0.90
2023-02-15T21:29:46.794Z,-0.90
2023-02-15T21:32:17.032Z,-0.90
2023-02-15T21:34:48.464Z,-0.90
2023-02-15T21:37:30.181Z,-0.90
2023-02-15T21:40:00.943Z,-1.00
2023-02-15T21:42:48.629Z,-1.00
2023-02-15T21:45:37.608Z,-1.00
2023-02-15T21:48:07.345Z,-1.10
2023-02-15T21:50:56.720Z,-1.20
2023-02-15T21:53:31.691Z,-1.20
2023-02-15T21:56:04.427Z,-1.20
2023-02-15T21:58:37.445Z,-1.20
2023-02-15T22:01:13.111Z,-1.30
2023-02-15T22:03:43.076Z,-1.30
2023-02-15T22:06:15.469Z,-1.30
2023-02-15T22:08:45.677Z,-1.20
2023-02-15T22:11:19.703Z,-1.10
2023-02-15T22:13:50.653Z,-1.00
2023-02-15T22:16:23.088Z,-1.00
2023-02-15T22:18:53.003Z,-1.00
2023-02-15T22:21:26.495Z,-1.00
2023-02-15T22:23:56.453Z,-0.90
2023-02-15T22:26:27.510Z,-0.80
2023-02-15T22:28:57.777Z,-0.70
2023-02-15T22:31:31.383Z,-0.80
2023-02-15T22:34:01.565Z,-0.90
2023-02-15T22:36:33.751Z,-1.00
2023-02-15T22:39:03.618Z,-1.00
2023-02-15T22:41:34.427Z,-1.10
2023-02-15T22:44:04.240Z,-1.10
2023-02-15T22:46:34.249Z,-1.10
2023-02-15T22:49:04.100Z,-1.20
2023-02-15T22:51:35.404Z,-1.30
2023-02-15T22:54:05.019Z,-1.30
2023-02-15T22:56:39.255Z,-1.20
2023-02-15T22:59:14.062Z,-1.20
2023-02-15T23:01:44.029Z,-1.20
2023-02-15T23:04:18.155Z,-1.20
2023-02-15T23:06:49.861Z,-1.20
2023-02-15T23:09:19.694Z,-1.30
2023-02-15T23:11:50.843Z,-1.30
2023-02-15T23:14:29.109Z,-1.30
2023-02-15T23:16:58.811Z,-1.10
2023-02-15T23:19:28.854Z,-1.00
2023-02-15T23:22:00.040Z,-0.90
2023-02-15T23:24:31.484Z,-1.00
2023-02-15T23:27:25.785Z,-1.10
2023-02-15T23:29:55.346Z,-1.20
2023-02-15T23:32:23.400Z,-1.10
2023-02-15T23:34:52.946Z,-1.20
2023-02-15T23:37:24.191Z,-1.20
2023-02-15T23:40:12.309Z,-1.20
2023-02-15T23:42:42.269Z,-1.20
2023-02-15T23:45:22.741Z,-1.30
2023-02-15T23:48:10.803Z,-1.20
2023-02-15T23:50:40.630Z,-1.20
2023-02-15T23:53:12.991Z,-1.30
2023-02-15T23:55:45.176Z,-1.40
2023-02-15T23:58:18.159Z,-1.50
